createdAt,value
2023-04-30T00:01:30.659Z,24.95
2023-04-30T00:06:25.538Z,26.77
2023-04-30T00:11:20.489Z,22.55
2023-04-30T00:16:13.241Z,21.65
2023-04-30T00:21:07.134Z,22.17
2023-04-30T00:26:00.575Z,20.15
2023-04-30T00:30:54.665Z,22.60
2023-04-30T00:35:47.959Z,23.80
2023-04-30T00:40:42.363Z,20.80
2023-04-30T00:45:36.421Z,16.40
2023-04-30T00:50:30.254Z,16.02
2023-04-30T00:55:23.383Z,17.98
2023-04-30T01:00:17.080Z,18.73
2023-04-30T01:05:11.179Z,21.48
2023-04-30T01:10:05.160Z,18.90
2023-04-30T01:15:07.154Z,19.90
2023-04-30T01:20:01.336Z,19.92
2023-04-30T01:25:12.945Z,18.80
2023-04-30T01:30:06.498Z,17.98
2023-04-30T01:35:00.595Z,17.88
2023-04-30T01:39:54.809Z,21.08
2023-04-30T01:45:05.517Z,19.75
2023-04-30T01:50:00.947Z,20.98
2023-04-30T01:54:59.805Z,19.38
2023-04-30T01:59:53.404Z,18.90
2023-04-30T02:04:46.076Z,21.65
2023-04-30T02:09:40.695Z,20.25
2023-04-30T02:14:33.874Z,22.02
2023-04-30T02:19:27.442Z,21.45
2023-04-30T02:24:22.022Z,16.50
2023-04-30T02:29:15.637Z,16.20
2023-04-30T02:34:11.660Z,18.80
2023-04-30T02:39:05.593Z,16.45
2023-04-30T02:43:58.285Z,18.85
2023-04-30T02:48:51.927Z,17.35
2023-04-30T02:53:44.870Z,19.83
2023-04-30T02:58:38.275Z,19.45
2023-04-30T03:03:31.096Z,18.10
2023-04-30T03:08:26.306Z,19.67
2023-04-30T03:13:20.197Z,21.77
2023-04-30T03:18:13.054Z,22.05
2023-04-30T03:23:06.656Z,22.90
2023-04-30T03:28:00.549Z,22.10
2023-04-30T03:32:54.189Z,20.92
2023-04-30T03:37:46.825Z,21.70
2023-04-30T03:42:41.017Z,21.25
2023-04-30T03:47:34.333Z,24.95
2023-04-30T03:52:28.208Z,21.42
2023-04-30T03:57:21.516Z,25.55
2023-04-30T04:02:13.880Z,25.50
2023-04-30T04:07:08.582Z,34.13
2023-04-30T04:12:02.305Z,34.75
2023-04-30T04:16:55.584Z,28.48
2023-04-30T04:21:49.520Z,23.08
2023-04-30T04:26:44.009Z,29.70
2023-04-30T04:31:39.019Z,29.08
2023-04-30T04:36:34.668Z,29.08
2023-04-30T04:41:27.787Z,24.38
2023-04-30T04:46:21.893Z,32.08
2023-04-30T04:51:14.292Z,26.10
2023-04-30T04:56:08.761Z,24.55
2023-04-30T05:01:02.188Z,35.10
2023-04-30T05:05:55.513Z,25.20
2023-04-30T05:10:48.526Z,28.77
2023-04-30T05:15:40.952Z,26.88
2023-04-30T05:20:35.811Z,30.98
2023-04-30T05:25:31.430Z,29.73
2023-04-30T05:30:25.174Z,27.60
2023-04-30T05:35:18.908Z,32.47
2023-04-30T05:40:14.368Z,24.40
2023-04-30T05:45:09.079Z,30.17
2023-04-30T05:50:02.610Z,28.35
2023-04-30T05:54:55.487Z,33.97
2023-04-30T05:59:49.156Z,27.63
2023-04-30T06:04:44.134Z,23.77
2023-04-30T06:09:37.240Z,26.83
2023-04-30T06:14:32.348Z,25.50
2023-04-30T06:19:25.259Z,24.30
2023-04-30T06:24:18.669Z,23.60
2023-04-30T06:29:13.048Z,24.88
2023-04-30T06:34:07.064Z,26.17
2023-04-30T06:38:59.390Z,26.13
2023-04-30T06:43:54.092Z,25.10
2023-04-30T06:48:47.694Z,22.65
2023-04-30T06:53:42.321Z,23.75
2023-04-30T06:58:35.539Z,22.40
2023-04-30T07:03:29.317Z,22.00
2023-04-30T07:08:23.090Z,20.40
2023-04-30T07:13:17.063Z,26.75
2023-04-30T07:18:10.908Z,20.95
2023-04-30T07:23:05.120Z,20.13
2023-04-30T07:27:58.762Z,18.90
2023-04-30T07:32:52.342Z,21.50
2023-04-30T07:37:45.321Z,19.83
2023-04-30T07:42:39.772Z,19.50
2023-04-30T07:47:33.605Z,21.27
2023-04-30T07:52:27.048Z,17.80
2023-04-30T07:57:19.996Z,17.60
2023-04-30T08:02:13.080Z,20.67
2023-04-30T08:07:06.405Z,17.23
2023-04-30T08:12:00.463Z,15.80
2023-04-30T08:16:54.612Z,16.73
2023-04-30T08:21:47.337Z,16.50
2023-04-30T08:26:41.391Z,16.35
2023-04-30T08:31:35.633Z,19.40
2023-04-30T08:36:29.511Z,16.15
2023-04-30T08:41:27.014Z,14.48
2023-04-30T08:46:23.729Z,18.48
2023-04-30T08:51:17.802Z,19.95
2023-04-30T08:56:11.976Z,15.85
2023-04-30T09:01:07.707Z,18.38
2023-04-30T09:06:00.550Z,14.77
2023-04-30T09:10:54.262Z,17.63
2023-04-30T09:15:52.871Z,15.07
2023-04-30T09:21:02.266Z,14.30
2023-04-30T09:25:55.558Z,15.70
2023-04-30T09:30:49.296Z,13.73
2023-04-30T09:35:44.184Z,14.38
2023-04-30T09:40:41.845Z,16.15
2023-04-30T09:45:42.319Z,14.60
2023-04-30T09:50:42.741Z,15.18
2023-04-30T09:55:37.492Z,10.07
2023-04-30T10:00:31.167Z,6.88
2023-04-30T10:05:24.421Z,7.90
2023-04-30T10:10:18.161Z,10.02
2023-04-30T10:15:12.574Z,6.70
2023-04-30T10:20:08.947Z,4.65
2023-04-30T10:25:03.369Z,8.82
2023-04-30T10:29:57.640Z,9.13
2023-04-30T10:34:55.707Z,7.07
2023-04-30T10:39:50.278Z,7.97
2023-04-30T10:44:43.082Z,6.95
2023-04-30T10:49:40.035Z,7.55
2023-04-30T10:54:36.311Z,14.48
2023-04-30T10:59:35.392Z,5.82
2023-04-30T11:04:28.628Z,6.95
2023-04-30T11:09:44.348Z,8.38
2023-04-30T11:15:05.465Z,10.73
2023-04-30T11:20:01.529Z,8.05
2023-04-30T11:24:55.453Z,7.22
2023-04-30T11:29:48.819Z,9.20
2023-04-30T11:34:45.354Z,7.05
2023-04-30T11:39:39.499Z,7.15
2023-04-30T11:44:33.281Z,8.48
2023-04-30T11:49:27.217Z,7.03
2023-04-30T11:54:20.377Z,8.90
2023-04-30T11:59:14.102Z,8.30
2023-04-30T12:04:10.736Z,7.65
2023-04-30T12:09:12.027Z,6.75
2023-04-30T12:14:13.162Z,10.27
2023-04-30T12:19:06.403Z,8.25
2023-04-30T12:24:02.765Z,13.35
2023-04-30T12:28:56.442Z,10.50
2023-04-30T12:33:57.510Z,8.77
2023-04-30T12:38:49.901Z,5.70
2023-04-30T12:43:44.177Z,8.75
2023-04-30T12:48:47.876Z,7.13
2023-04-30T12:54:03.714Z,11.77
2023-04-30T12:58:57.307Z,8.13
2023-04-30T13:03:49.850Z,9.23
2023-04-30T13:13:43.027Z,11.02
2023-04-30T13:18:38.002Z,8.10
2023-04-30T13:23:35.849Z,12.15
2023-04-30T13:28:32.096Z,6.60
2023-04-30T13:33:25.642Z,7.78
2023-04-30T13:38:19.870Z,4.80
2023-04-30T13:43:13.947Z,4.30
2023-04-30T13:48:09.166Z,6.75
2023-04-30T13:53:02.789Z,5.85
2023-04-30T13:57:57.518Z,10.43
2023-04-30T14:02:53.018Z,7.22
2023-04-30T14:07:47.336Z,5.57
2023-04-30T14:12:40.149Z,4.20
2023-04-30T14:17:33.724Z,3.95
2023-04-30T14:22:27.840Z,5.03
2023-04-30T14:27:22.230Z,2.90
2023-04-30T14:32:16.303Z,5.40
2023-04-30T14:37:09.217Z,3.95
2023-04-30T14:42:03.840Z,4.00
2023-04-30T14:46:57.526Z,4.03
2023-04-30T14:51:51.251Z,3.97
2023-04-30T14:56:44.651Z,3.75
2023-04-30T15:01:38.493Z,6.40
2023-04-30T15:06:32.171Z,4.40
2023-04-30T15:11:25.929Z,5.53
2023-04-30T15:16:20.046Z,6.45
2023-04-30T15:21:14.212Z,6.05
2023-04-30T15:26:07.713Z,6.43
2023-04-30T15:31:04.545Z,4.53
2023-04-30T15:35:58.478Z,7.20
2023-04-30T15:40:52.544Z,7.00
2023-04-30T15:45:46.828Z,5.50
2023-04-30T15:50:40.764Z,3.63
2023-04-30T15:55:35.085Z,4.70
2023-04-30T16:00:29.777Z,4.00
2023-04-30T16:05:22.501Z,6.15
2023-04-30T16:10:16.135Z,3.65
2023-04-30T16:15:10.873Z,4.60
2023-04-30T16:20:03.914Z,6.35
2023-04-30T16:24:57.043Z,3.92
2023-04-30T16:29:50.739Z,6.35
2023-04-30T16:34:44.807Z,4.75
2023-04-30T16:39:38.048Z,4.57
2023-04-30T16:44:30.724Z,6.78
2023-04-30T16:49:23.910Z,4.50
2023-04-30T16:54:17.387Z,4.75
2023-04-30T16:59:11.513Z,5.75
2023-04-30T17:04:05.900Z,6.13
2023-04-30T17:08:59.838Z,4.88
2023-04-30T17:13:55.581Z,4.57
2023-04-30T17:18:49.297Z,4.93
2023-04-30T17:23:42.856Z,5.80
2023-04-30T17:28:37.570Z,7.45
2023-04-30T17:33:30.716Z,4.55
2023-04-30T17:38:24.061Z,5.18
2023-04-30T17:43:17.949Z,4.38
2023-04-30T17:48:11.286Z,7.40
2023-04-30T17:53:04.189Z,6.90
2023-04-30T17:57:59.850Z,7.13
2023-04-30T18:02:52.306Z,12.98
2023-04-30T18:07:45.967Z,4.70
2023-04-30T18:12:40.291Z,4.18
2023-04-30T18:17:35.628Z,5.25
2023-04-30T18:22:30.564Z,4.72
2023-04-30T18:27:23.312Z,3.75
2023-04-30T18:32:17.588Z,5.47
2023-04-30T18:37:11.341Z,3.95
2023-04-30T18:42:04.274Z,2.83
2023-04-30T18:46:58.452Z,6.28
2023-04-30T18:51:51.462Z,4.30
2023-04-30T18:56:49.481Z,5.50
2023-04-30T19:01:43.251Z,4.03
2023-04-30T19:06:36.681Z,6.50
2023-04-30T19:11:31.144Z,3.60
2023-04-30T19:16:26.205Z,4.47
2023-04-30T19:21:19.822Z,4.20
2023-04-30T19:26:12.714Z,4.65
2023-04-30T19:31:06.795Z,6.30
2023-04-30T19:36:03.093Z,5.30
2023-04-30T19:40:57.299Z,4.78
2023-04-30T19:45:59.002Z,4.10
2023-04-30T19:50:55.857Z,3.70
2023-04-30T19:55:48.182Z,4.78
2023-04-30T20:00:45.599Z,6.45
2023-04-30T20:05:40.208Z,6.82
2023-04-30T20:10:37.398Z,8.15
2023-04-30T20:15:30.955Z,5.20
2023-04-30T20:20:25.143Z,5.22
2023-04-30T20:25:19.702Z,6.00
2023-04-30T20:30:14.306Z,8.00
2023-04-30T20:35:11.281Z,7.05
2023-04-30T20:40:08.998Z,5.75
2023-04-30T20:45:05.485Z,5.43
2023-04-30T20:50:00.062Z,5.43
2023-04-30T20:54:57.638Z,6.57
2023-04-30T20:59:50.996Z,8.18
2023-04-30T21:04:44.160Z,5.63
2023-04-30T21:09:39.389Z,4.50
2023-04-30T21:14:33.015Z,8.77
2023-04-30T21:19:28.211Z,8.60
2023-04-30T21:24:22.000Z,5.43
2023-04-30T21:29:16.182Z,7.07
2023-04-30T21:34:10.017Z,6.25
2023-04-30T21:39:04.978Z,5.20
2023-04-30T21:43:59.109Z,6.75
2023-04-30T21:48:51.488Z,7.72
2023-04-30T21:53:46.108Z,6.35
2023-04-30T21:58:40.084Z,7.05
2023-04-30T22:03:34.475Z,7.72
2023-04-30T22:08:28.568Z,9.35
2023-04-30T22:13:23.612Z,7.78
2023-04-30T22:18:17.689Z,11.70
2023-04-30T22:23:12.451Z,7.22
2023-04-30T22:28:06.716Z,8.63
2023-04-30T22:33:00.215Z,8.25
2023-04-30T22:37:53.904Z,7.38
2023-04-30T22:42:49.360Z,8.73
2023-04-30T22:47:42.694Z,9.82
2023-04-30T22:52:35.534Z,8.00
2023-04-30T22:57:29.789Z,7.82
2023-04-30T23:02:23.238Z,7.20
2023-04-30T23:07:16.895Z,8.98
2023-04-30T23:12:10.216Z,8.70
2023-04-30T23:17:03.816Z,8.93
2023-04-30T23:21:57.979Z,9.50
2023-04-30T23:26:51.892Z,9.48
2023-04-30T23:31:45.083Z,12.15
2023-04-30T23:36:39.281Z,9.95
2023-04-30T23:41:32.864Z,10.18
2023-04-30T23:46:27.526Z,13.65
2023-04-30T23:51:21.973Z,13.77
2023-04-30T23:56:15.519Z,15.82
